sensor_id;sensor_type;location;lat;lon;timestamp;P1;durP1;ratioP1;P2;durP2;ratioP2
52730;SDS011;38624;53.242;6.974;2023-03-01T00:01:17;31.83;;;18.35;;
52730;SDS011;38624;53.242;6.974;2023-03-01T00:03:44;34.43;;;19.83;;
52730;SDS011;38624;53.242;6.974;2023-03-01T00:06:10;33.20;;;19.37;;
52730;SDS011;38624;53.242;6.974;2023-03-01T00:08:36;35.17;;;19.80;;
52730;SDS011;38624;53.242;6.974;2023-03-01T00:11:03;33.25;;;19.08;;
52730;SDS011;38624;53.242;6.974;2023-03-01T00:13:30;30.90;;;17.70;;
52730;SDS011;38624;53.242;6.974;2023-03-01T00:15:56;24.53;;;15.53;;
52730;SDS011;38624;53.242;6.974;2023-03-01T00:18:22;24.13;;;14.43;;
52730;SDS011;38624;53.242;6.974;2023-03-01T00:20:51;23.45;;;14.82;;
52730;SDS011;38624;53.242;6.974;2023-03-01T00:23:20;25.70;;;15.50;;
52730;SDS011;38624;53.242;6.974;2023-03-01T00:25:46;25.60;;;15.07;;
52730;SDS011;38624;53.242;6.974;2023-03-01T00:28:12;20.20;;;13.45;;
52730;SDS011;38624;53.242;6.974;2023-03-01T00:30:38;27.30;;;15.63;;
52730;SDS011;38624;53.242;6.974;2023-03-01T00:33:04;22.73;;;14.00;;
52730;SDS011;38624;53.242;6.974;2023-03-01T00:35:31;25.93;;;14.10;;
52730;SDS011;38624;53.242;6.974;2023-03-01T00:37:57;22.20;;;12.83;;
52730;SDS011;38624;53.242;6.974;2023-03-01T00:40:23;21.60;;;13.30;;
52730;SDS011;38624;53.242;6.974;2023-03-01T00:42:50;18.80;;;11.90;;
52730;SDS011;38624;53.242;6.974;2023-03-01T00:45:16;19.77;;;13.00;;
52730;SDS011;38624;53.242;6.974;2023-03-01T00:47:42;20.90;;;13.47;;
52730;SDS011;38624;53.242;6.974;2023-03-01T00:50:08;18.30;;;10.50;;
52730;SDS011;38624;53.242;6.974;2023-03-01T00:52:34;55.15;;;12.85;;
52730;SDS011;38624;53.242;6.974;2023-03-01T00:55:00;76.50;;;14.27;;
52730;SDS011;38624;53.242;6.974;2023-03-01T00:57:25;118.55;;;14.93;;
52730;SDS011;38624;53.242;6.974;2023-03-01T00:59:51;36.47;;;12.67;;
52730;SDS011;38624;53.242;6.974;2023-03-01T01:02:17;20.27;;;9.43;;
52730;SDS011;38624;53.242;6.974;2023-03-01T01:04:44;10.88;;;8.15;;
52730;SDS011;38624;53.242;6.974;2023-03-01T01:07:11;11.15;;;8.55;;
52730;SDS011;38624;53.242;6.974;2023-03-01T01:09:36;14.13;;;8.97;;
52730;SDS011;38624;53.242;6.974;2023-03-01T01:12:03;13.63;;;9.53;;
52730;SDS011;38624;53.242;6.974;2023-03-01T01:14:29;17.37;;;10.70;;
52730;SDS011;38624;53.242;6.974;2023-03-01T01:16:55;12.10;;;8.63;;
52730;SDS011;38624;53.242;6.974;2023-03-01T01:19:20;17.13;;;9.43;;
52730;SDS011;38624;53.242;6.974;2023-03-01T01:21:46;15.03;;;10.40;;
52730;SDS011;38624;53.242;6.974;2023-03-01T01:24:13;22.08;;;14.05;;
52730;SDS011;38624;53.242;6.974;2023-03-01T01:26:39;29.52;;;18.25;;
52730;SDS011;38624;53.242;6.974;2023-03-01T01:29:06;30.30;;;16.10;;
52730;SDS011;38624;53.242;6.974;2023-03-01T01:31:33;22.70;;;14.05;;
52730;SDS011;38624;53.242;6.974;2023-03-01T01:34:01;27.23;;;16.60;;
52730;SDS011;38624;53.242;6.974;2023-03-01T01:36:28;31.80;;;18.13;;
52730;SDS011;38624;53.242;6.974;2023-03-01T01:38:54;31.97;;;18.40;;
52730;SDS011;38624;53.242;6.974;2023-03-01T01:41:20;27.67;;;15.40;;
52730;SDS011;38624;53.242;6.974;2023-03-01T01:44:10;25.33;;;14.82;;
52730;SDS011;38624;53.242;6.974;2023-03-01T01:46:53;25.83;;;15.27;;
52730;SDS011;38624;53.242;6.974;2023-03-01T01:49:44;21.97;;;14.20;;
52730;SDS011;38624;53.242;6.974;2023-03-01T01:52:18;26.33;;;16.20;;
52730;SDS011;38624;53.242;6.974;2023-03-01T01:57:34;24.43;;;15.93;;
52730;SDS011;38624;53.242;6.974;2023-03-01T02:00:11;24.60;;;15.27;;
52730;SDS011;38624;53.242;6.974;2023-03-01T02:02:41;23.77;;;15.47;;
52730;SDS011;38624;53.242;6.974;2023-03-01T02:05:14;25.77;;;15.17;;
52730;SDS011;38624;53.242;6.974;2023-03-01T02:07:57;37.67;;;20.92;;
52730;SDS011;38624;53.242;6.974;2023-03-01T02:10:24;37.70;;;19.90;;
52730;SDS011;38624;53.242;6.974;2023-03-01T02:12:52;37.20;;;20.73;;
52730;SDS011;38624;53.242;6.974;2023-03-01T02:15:21;35.67;;;20.83;;
52730;SDS011;38624;53.242;6.974;2023-03-01T02:17:48;37.38;;;21.23;;
52730;SDS011;38624;53.242;6.974;2023-03-01T02:22:58;29.63;;;17.50;;
52730;SDS011;38624;53.242;6.974;2023-03-01T02:25:44;31.58;;;18.38;;
52730;SDS011;38624;53.242;6.974;2023-03-01T02:28:22;31.27;;;18.50;;
52730;SDS011;38624;53.242;6.974;2023-03-01T02:30:48;36.03;;;21.90;;
52730;SDS011;38624;53.242;6.974;2023-03-01T02:33:34;40.73;;;21.60;;
52730;SDS011;38624;53.242;6.974;2023-03-01T02:36:09;31.80;;;19.57;;
52730;SDS011;38624;53.242;6.974;2023-03-01T02:38:48;29.80;;;17.93;;
52730;SDS011;38624;53.242;6.974;2023-03-01T02:41:17;34.33;;;18.40;;
52730;SDS011;38624;53.242;6.974;2023-03-01T02:43:45;32.00;;;17.90;;
52730;SDS011;38624;53.242;6.974;2023-03-01T02:46:18;27.77;;;16.23;;
52730;SDS011;38624;53.242;6.974;2023-03-01T02:48:48;28.83;;;16.97;;
52730;SDS011;38624;53.242;6.974;2023-03-01T02:53:56;18.20;;;11.67;;
52730;SDS011;38624;53.242;6.974;2023-03-01T02:56:39;18.00;;;11.47;;
52730;SDS011;38624;53.242;6.974;2023-03-01T02:59:06;16.63;;;11.18;;
52730;SDS011;38624;53.242;6.974;2023-03-01T03:01:33;14.77;;;9.30;;
52730;SDS011;38624;53.242;6.974;2023-03-01T03:04:03;12.60;;;8.07;;
52730;SDS011;38624;53.242;6.974;2023-03-01T03:06:30;13.23;;;9.20;;
52730;SDS011;38624;53.242;6.974;2023-03-01T03:08:56;13.97;;;8.93;;
52730;SDS011;38624;53.242;6.974;2023-03-01T03:11:22;16.00;;;8.80;;
52730;SDS011;38624;53.242;6.974;2023-03-01T03:13:48;20.10;;;12.52;;
52730;SDS011;38624;53.242;6.974;2023-03-01T03:16:14;17.93;;;10.63;;
52730;SDS011;38624;53.242;6.974;2023-03-01T03:18:40;15.98;;;10.70;;
52730;SDS011;38624;53.242;6.974;2023-03-01T03:21:10;16.50;;;9.93;;
52730;SDS011;38624;53.242;6.974;2023-03-01T03:23:36;14.10;;;9.17;;
52730;SDS011;38624;53.242;6.974;2023-03-01T03:26:03;15.17;;;10.03;;
52730;SDS011;38624;53.242;6.974;2023-03-01T03:28:29;11.70;;;8.82;;
52730;SDS011;38624;53.242;6.974;2023-03-01T03:30:59;12.20;;;9.07;;
52730;SDS011;38624;53.242;6.974;2023-03-01T03:33:31;10.80;;;8.53;;
52730;SDS011;38624;53.242;6.974;2023-03-01T03:35:57;11.57;;;8.60;;
52730;SDS011;38624;53.242;6.974;2023-03-01T03:38:23;11.53;;;9.33;;
52730;SDS011;38624;53.242;6.974;2023-03-01T03:40:49;11.17;;;8.50;;
52730;SDS011;38624;53.242;6.974;2023-03-01T03:43:20;10.37;;;7.93;;
52730;SDS011;38624;53.242;6.974;2023-03-01T03:45:48;11.63;;;9.03;;
52730;SDS011;38624;53.242;6.974;2023-03-01T03:48:15;10.87;;;8.17;;
52730;SDS011;38624;53.242;6.974;2023-03-01T03:50:46;13.13;;;9.30;;
52730;SDS011;38624;53.242;6.974;2023-03-01T03:53:14;13.20;;;9.57;;
52730;SDS011;38624;53.242;6.974;2023-03-01T03:55:40;14.07;;;10.03;;
52730;SDS011;38624;53.242;6.974;2023-03-01T03:58:08;23.30;;;13.90;;
52730;SDS011;38624;53.242;6.974;2023-03-01T04:00:36;28.47;;;15.70;;
52730;SDS011;38624;53.242;6.974;2023-03-01T04:03:03;26.90;;;15.03;;
52730;SDS011;38624;53.242;6.974;2023-03-01T04:05:29;20.67;;;12.93;;
52730;SDS011;38624;53.242;6.974;2023-03-01T04:07:56;22.27;;;13.63;;
52730;SDS011;38624;53.242;6.974;2023-03-01T04:10:29;28.00;;;14.37;;
52730;SDS011;38624;53.242;6.974;2023-03-01T04:12:56;48.87;;;15.93;;
52730;SDS011;38624;53.242;6.974;2023-03-01T04:15:23;28.47;;;16.43;;
52730;SDS011;38624;53.242;6.974;2023-03-01T04:17:50;29.57;;;16.50;;
52730;SDS011;38624;53.242;6.974;2023-03-01T04:20:18;30.53;;;15.23;;
52730;SDS011;38624;53.242;6.974;2023-03-01T04:22:58;28.47;;;13.33;;
52730;SDS011;38624;53.242;6.974;2023-03-01T04:25:25;57.17;;;10.97;;
52730;SDS011;38624;53.242;6.974;2023-03-01T04:27:51;21.20;;;11.73;;
52730;SDS011;38624;53.242;6.974;2023-03-01T04:30:16;15.47;;;9.37;;
52730;SDS011;38624;53.242;6.974;2023-03-01T04:32:42;30.93;;;9.00;;
52730;SDS011;38624;53.242;6.974;2023-03-01T04:35:08;28.73;;;10.27;;
52730;SDS011;38624;53.242;6.974;2023-03-01T04:37:34;33.47;;;10.07;;
52730;SDS011;38624;53.242;6.974;2023-03-01T04:40:01;39.47;;;10.60;;
52730;SDS011;38624;53.242;6.974;2023-03-01T04:42:38;24.83;;;11.45;;
52730;SDS011;38624;53.242;6.974;2023-03-01T04:45:04;13.93;;;9.83;;
52730;SDS011;38624;53.242;6.974;2023-03-01T04:47:38;20.83;;;11.20;;
52730;SDS011;38624;53.242;6.974;2023-03-01T04:50:04;13.10;;;9.75;;
52730;SDS011;38624;53.242;6.974;2023-03-01T04:52:31;15.48;;;10.27;;
52730;SDS011;38624;53.242;6.974;2023-03-01T04:54:56;12.23;;;9.30;;
52730;SDS011;38624;53.242;6.974;2023-03-01T04:57:22;12.50;;;9.33;;
52730;SDS011;38624;53.242;6.974;2023-03-01T04:59:48;14.17;;;10.23;;
52730;SDS011;38624;53.242;6.974;2023-03-01T05:02:13;15.00;;;10.60;;
52730;SDS011;38624;53.242;6.974;2023-03-01T05:04:39;13.73;;;10.40;;
52730;SDS011;38624;53.242;6.974;2023-03-01T05:07:05;16.27;;;11.23;;
52730;SDS011;38624;53.242;6.974;2023-03-01T05:09:30;18.03;;;11.90;;
52730;SDS011;38624;53.242;6.974;2023-03-01T05:11:56;19.40;;;12.63;;
52730;SDS011;38624;53.242;6.974;2023-03-01T05:14:21;20.37;;;13.07;;
52730;SDS011;38624;53.242;6.974;2023-03-01T05:16:47;20.90;;;13.07;;
52730;SDS011;38624;53.242;6.974;2023-03-01T05:19:13;19.43;;;12.53;;
52730;SDS011;38624;53.242;6.974;2023-03-01T05:21:47;24.53;;;12.33;;
52730;SDS011;38624;53.242;6.974;2023-03-01T05:24:37;48.13;;;15.30;;
52730;SDS011;38624;53.242;6.974;2023-03-01T05:27:03;49.23;;;16.50;;
52730;SDS011;38624;53.242;6.974;2023-03-01T05:29:30;27.58;;;15.50;;
52730;SDS011;38624;53.242;6.974;2023-03-01T05:32:00;24.50;;;15.00;;
52730;SDS011;38624;53.242;6.974;2023-03-01T05:34:31;24.40;;;14.70;;
52730;SDS011;38624;53.242;6.974;2023-03-01T05:37:00;23.60;;;15.60;;
52730;SDS011;38624;53.242;6.974;2023-03-01T05:39:27;26.95;;;15.85;;
52730;SDS011;38624;53.242;6.974;2023-03-01T05:41:58;54.33;;;16.25;;
52730;SDS011;38624;53.242;6.974;2023-03-01T05:44:25;28.67;;;14.10;;
52730;SDS011;38624;53.242;6.974;2023-03-01T05:46:51;19.85;;;13.30;;
52730;SDS011;38624;53.242;6.974;2023-03-01T05:49:17;24.43;;;13.53;;
52730;SDS011;38624;53.242;6.974;2023-03-01T05:51:45;62.00;;;18.75;;
52730;SDS011;38624;53.242;6.974;2023-03-01T05:54:13;32.53;;;13.67;;
52730;SDS011;38624;53.242;6.974;2023-03-01T05:56:39;19.40;;;14.03;;
52730;SDS011;38624;53.242;6.974;2023-03-01T05:59:05;20.60;;;14.33;;
52730;SDS011;38624;53.242;6.974;2023-03-01T06:01:32;21.48;;;14.55;;
52730;SDS011;38624;53.242;6.974;2023-03-01T06:06:24;22.80;;;15.03;;
52730;SDS011;38624;53.242;6.974;2023-03-01T06:08:51;23.08;;;14.40;;
52730;SDS011;38624;53.242;6.974;2023-03-01T06:13:44;23.00;;;14.17;;
52730;SDS011;38624;53.242;6.974;2023-03-01T06:16:10;22.93;;;14.47;;
52730;SDS011;38624;53.242;6.974;2023-03-01T06:18:36;25.38;;;14.95;;
52730;SDS011;38624;53.242;6.974;2023-03-01T06:21:03;23.98;;;14.52;;
52730;SDS011;38624;53.242;6.974;2023-03-01T06:23:29;22.05;;;15.63;;
52730;SDS011;38624;53.242;6.974;2023-03-01T06:25:55;24.27;;;16.47;;
52730;SDS011;38624;53.242;6.974;2023-03-01T06:28:21;23.50;;;14.80;;
52730;SDS011;38624;53.242;6.974;2023-03-01T06:30:47;24.33;;;16.63;;
52730;SDS011;38624;53.242;6.974;2023-03-01T06:33:13;28.57;;;18.43;;
52730;SDS011;38624;53.242;6.974;2023-03-01T06:35:39;25.40;;;17.70;;
52730;SDS011;38624;53.242;6.974;2023-03-01T06:38:05;22.00;;;15.97;;
52730;SDS011;38624;53.242;6.974;2023-03-01T06:40:31;45.60;;;17.05;;
52730;SDS011;38624;53.242;6.974;2023-03-01T06:42:57;34.83;;;18.13;;
52730;SDS011;38624;53.242;6.974;2023-03-01T06:45:23;46.93;;;19.90;;
52730;SDS011;38624;53.242;6.974;2023-03-01T06:47:49;46.20;;;20.23;;
52730;SDS011;38624;53.242;6.974;2023-03-01T06:50:16;29.90;;;17.93;;
52730;SDS011;38624;53.242;6.974;2023-03-01T06:52:42;31.73;;;19.17;;
52730;SDS011;38624;53.242;6.974;2023-03-01T06:55:10;27.80;;;18.05;;
52730;SDS011;38624;53.242;6.974;2023-03-01T06:57:37;26.17;;;16.30;;
52730;SDS011;38624;53.242;6.974;2023-03-01T07:00:03;25.17;;;16.33;;
52730;SDS011;38624;53.242;6.974;2023-03-01T07:02:30;25.05;;;15.52;;
52730;SDS011;38624;53.242;6.974;2023-03-01T07:04:55;21.13;;;14.13;;
52730;SDS011;38624;53.242;6.974;2023-03-01T07:07:21;25.27;;;14.63;;
52730;SDS011;38624;53.242;6.974;2023-03-01T07:09:48;25.33;;;16.17;;
52730;SDS011;38624;53.242;6.974;2023-03-01T07:12:14;25.98;;;15.30;;
52730;SDS011;38624;53.242;6.974;2023-03-01T07:14:41;26.05;;;15.88;;
52730;SDS011;38624;53.242;6.974;2023-03-01T07:17:08;20.53;;;13.53;;
52730;SDS011;38624;53.242;6.974;2023-03-01T07:19:34;20.70;;;13.77;;
52730;SDS011;38624;53.242;6.974;2023-03-01T07:22:00;24.00;;;14.97;;
52730;SDS011;38624;53.242;6.974;2023-03-01T07:24:26;23.13;;;15.37;;
52730;SDS011;38624;53.242;6.974;2023-03-01T07:26:52;22.43;;;14.67;;
52730;SDS011;38624;53.242;6.974;2023-03-01T07:29:18;21.83;;;14.00;;
52730;SDS011;38624;53.242;6.974;2023-03-01T07:31:44;22.27;;;14.97;;
52730;SDS011;38624;53.242;6.974;2023-03-01T07:34:10;22.40;;;14.27;;
52730;SDS011;38624;53.242;6.974;2023-03-01T07:36:36;21.63;;;14.07;;
52730;SDS011;38624;53.242;6.974;2023-03-01T07:39:02;22.73;;;14.00;;
52730;SDS011;38624;53.242;6.974;2023-03-01T07:41:29;30.50;;;16.83;;
52730;SDS011;38624;53.242;6.974;2023-03-01T07:43:55;37.53;;;20.87;;
52730;SDS011;38624;53.242;6.974;2023-03-01T07:46:20;28.60;;;17.03;;
52730;SDS011;38624;53.242;6.974;2023-03-01T07:48:46;28.87;;;17.13;;
52730;SDS011;38624;53.242;6.974;2023-03-01T07:51:12;35.50;;;17.57;;
52730;SDS011;38624;53.242;6.974;2023-03-01T07:53:38;36.43;;;15.13;;
52730;SDS011;38624;53.242;6.974;2023-03-01T07:56:05;146.87;;;18.00;;
52730;SDS011;38624;53.242;6.974;2023-03-01T07:58:36;52.43;;;16.17;;
52730;SDS011;38624;53.242;6.974;2023-03-01T08:01:03;64.70;;;17.80;;
52730;SDS011;38624;53.242;6.974;2023-03-01T08:03:30;81.97;;;17.97;;
52730;SDS011;38624;53.242;6.974;2023-03-01T08:05:58;22.43;;;14.87;;
52730;SDS011;38624;53.242;6.974;2023-03-01T08:08:25;36.47;;;14.60;;
52730;SDS011;38624;53.242;6.974;2023-03-01T08:10:50;48.70;;;13.17;;
52730;SDS011;38624;53.242;6.974;2023-03-01T08:13:16;49.57;;;12.93;;
52730;SDS011;38624;53.242;6.974;2023-03-01T08:15:47;77.90;;;14.37;;
52730;SDS011;38624;53.242;6.974;2023-03-01T08:18:14;39.72;;;14.10;;
52730;SDS011;38624;53.242;6.974;2023-03-01T08:20:40;44.65;;;13.82;;
52730;SDS011;38624;53.242;6.974;2023-03-01T08:23:06;20.93;;;12.20;;
52730;SDS011;38624;53.242;6.974;2023-03-01T08:25:32;25.33;;;13.17;;
52730;SDS011;38624;53.242;6.974;2023-03-01T08:27:58;23.87;;;12.70;;
52730;SDS011;38624;53.242;6.974;2023-03-01T08:30:23;43.77;;;13.30;;
52730;SDS011;38624;53.242;6.974;2023-03-01T08:32:49;42.37;;;13.70;;
52730;SDS011;38624;53.242;6.974;2023-03-01T08:35:16;35.77;;;13.53;;
52730;SDS011;38624;53.242;6.974;2023-03-01T08:37:42;34.60;;;12.73;;
52730;SDS011;38624;53.242;6.974;2023-03-01T08:40:08;34.43;;;12.67;;
52730;SDS011;38624;53.242;6.974;2023-03-01T08:45:01;24.70;;;12.33;;
52730;SDS011;38624;53.242;6.974;2023-03-01T08:47:27;18.38;;;13.20;;
52730;SDS011;38624;53.242;6.974;2023-03-01T08:49:53;16.60;;;12.70;;
52730;SDS011;38624;53.242;6.974;2023-03-01T08:52:19;17.70;;;13.00;;
52730;SDS011;38624;53.242;6.974;2023-03-01T08:54:49;17.13;;;13.23;;
52730;SDS011;38624;53.242;6.974;2023-03-01T08:57:15;17.37;;;13.33;;
52730;SDS011;38624;53.242;6.974;2023-03-01T08:59:40;18.13;;;12.77;;
52730;SDS011;38624;53.242;6.974;2023-03-01T09:02:10;16.73;;;13.60;;
52730;SDS011;38624;53.242;6.974;2023-03-01T09:04:38;17.30;;;13.43;;
52730;SDS011;38624;53.242;6.974;2023-03-01T09:07:04;18.45;;;13.82;;
52730;SDS011;38624;53.242;6.974;2023-03-01T09:09:30;31.03;;;15.03;;
52730;SDS011;38624;53.242;6.974;2023-03-01T09:11:56;19.93;;;14.50;;
52730;SDS011;38624;53.242;6.974;2023-03-01T09:14:22;26.63;;;14.97;;
52730;SDS011;38624;53.242;6.974;2023-03-01T09:16:47;21.03;;;15.33;;
52730;SDS011;38624;53.242;6.974;2023-03-01T09:19:13;26.77;;;16.33;;
52730;SDS011;38624;53.242;6.974;2023-03-01T09:21:39;20.40;;;15.23;;
52730;SDS011;38624;53.242;6.974;2023-03-01T09:24:06;22.55;;;15.63;;
52730;SDS011;38624;53.242;6.974;2023-03-01T09:26:41;22.07;;;16.40;;
52730;SDS011;38624;53.242;6.974;2023-03-01T09:29:11;24.03;;;16.23;;
52730;SDS011;38624;53.242;6.974;2023-03-01T09:31:37;24.40;;;16.70;;
52730;SDS011;38624;53.242;6.974;2023-03-01T09:34:03;25.48;;;18.40;;
52730;SDS011;38624;53.242;6.974;2023-03-01T09:36:29;28.87;;;19.30;;
52730;SDS011;38624;53.242;6.974;2023-03-01T09:38:55;27.53;;;19.90;;
52730;SDS011;38624;53.242;6.974;2023-03-01T09:41:29;30.60;;;21.27;;
52730;SDS011;38624;53.242;6.974;2023-03-01T09:46:51;33.80;;;22.80;;
52730;SDS011;38624;53.242;6.974;2023-03-01T09:49:21;36.77;;;23.93;;
52730;SDS011;38624;53.242;6.974;2023-03-01T09:51:54;37.50;;;25.13;;
52730;SDS011;38624;53.242;6.974;2023-03-01T09:54:39;46.77;;;27.27;;
52730;SDS011;38624;53.242;6.974;2023-03-01T09:57:15;40.17;;;26.63;;
52730;SDS011;38624;53.242;6.974;2023-03-01T10:05:04;41.77;;;26.67;;
52730;SDS011;38624;53.242;6.974;2023-03-01T10:10:37;42.67;;;26.63;;
52730;SDS011;38624;53.242;6.974;2023-03-01T10:13:10;39.10;;;26.73;;
52730;SDS011;38624;53.242;6.974;2023-03-01T10:15:54;42.27;;;27.60;;
52730;SDS011;38624;53.242;6.974;2023-03-01T10:18:24;36.37;;;24.90;;
52730;SDS011;38624;53.242;6.974;2023-03-01T10:21:02;36.17;;;25.53;;
52730;SDS011;38624;53.242;6.974;2023-03-01T10:23:49;41.10;;;26.37;;
52730;SDS011;38624;53.242;6.974;2023-03-01T10:29:10;35.77;;;24.20;;
52730;SDS011;38624;53.242;6.974;2023-03-01T10:31:38;36.53;;;23.95;;
52730;SDS011;38624;53.242;6.974;2023-03-01T10:34:12;35.13;;;22.80;;
52730;SDS011;38624;53.242;6.974;2023-03-01T10:36:40;33.50;;;22.20;;
52730;SDS011;38624;53.242;6.974;2023-03-01T10:39:12;35.70;;;22.13;;
52730;SDS011;38624;53.242;6.974;2023-03-01T10:41:57;35.45;;;21.95;;
52730;SDS011;38624;53.242;6.974;2023-03-01T10:44:35;34.45;;;20.58;;
52730;SDS011;38624;53.242;6.974;2023-03-01T10:47:12;35.28;;;21.45;;
52730;SDS011;38624;53.242;6.974;2023-03-01T10:49:56;32.93;;;21.03;;
52730;SDS011;38624;53.242;6.974;2023-03-01T10:52:27;35.60;;;21.02;;
52730;SDS011;38624;53.242;6.974;2023-03-01T10:54:59;31.92;;;20.73;;
52730;SDS011;38624;53.242;6.974;2023-03-01T10:57:49;31.25;;;19.88;;
52730;SDS011;38624;53.242;6.974;2023-03-01T11:03:33;30.58;;;18.98;;
52730;SDS011;38624;53.242;6.974;2023-03-01T11:05:50;31.13;;;18.55;;
52730;SDS011;38624;53.242;6.974;2023-03-01T11:08:26;28.67;;;18.90;;
52730;SDS011;38624;53.242;6.974;2023-03-01T11:16:29;23.00;;;15.38;;
52730;SDS011;38624;53.242;6.974;2023-03-01T11:18:59;22.33;;;15.45;;
52730;SDS011;38624;53.242;6.974;2023-03-01T11:21:35;20.33;;;14.48;;
52730;SDS011;38624;53.242;6.974;2023-03-01T11:24:08;19.30;;;13.93;;
52730;SDS011;38624;53.242;6.974;2023-03-01T11:26:39;20.38;;;13.30;;
52730;SDS011;38624;53.242;6.974;2023-03-01T11:29:12;20.08;;;13.68;;
52730;SDS011;38624;53.242;6.974;2023-03-01T11:31:58;16.67;;;12.13;;
52730;SDS011;38624;53.242;6.974;2023-03-01T11:34:38;19.35;;;13.30;;
52730;SDS011;38624;53.242;6.974;2023-03-01T11:37:15;21.02;;;12.95;;
52730;SDS011;38624;53.242;6.974;2023-03-01T11:42:35;18.70;;;12.95;;
52730;SDS011;38624;53.242;6.974;2023-03-01T11:45:10;20.45;;;14.52;;
52730;SDS011;38624;53.242;6.974;2023-03-01T11:50:34;18.88;;;13.25;;
52730;SDS011;38624;53.242;6.974;2023-03-01T12:06:24;15.60;;;11.60;;
52730;SDS011;38624;53.242;6.974;2023-03-01T12:19:51;14.52;;;9.88;;
52730;SDS011;38624;53.242;6.974;2023-03-01T12:22:43;12.95;;;8.75;;
52730;SDS011;38624;53.242;6.974;2023-03-01T12:25:13;12.13;;;9.07;;
52730;SDS011;38624;53.242;6.974;2023-03-01T12:38:10;11.77;;;9.27;;
52730;SDS011;38624;53.242;6.974;2023-03-01T12:43:37;10.70;;;8.60;;
52730;SDS011;38624;53.242;6.974;2023-03-01T12:46:38;11.60;;;8.75;;
52730;SDS011;38624;53.242;6.974;2023-03-01T12:49:34;11.98;;;8.68;;
52730;SDS011;38624;53.242;6.974;2023-03-01T12:54:53;11.88;;;9.32;;
52730;SDS011;38624;53.242;6.974;2023-03-01T13:02:52;11.07;;;9.32;;
52730;SDS011;38624;53.242;6.974;2023-03-01T13:08:49;11.65;;;9.60;;
52730;SDS011;38624;53.242;6.974;2023-03-01T13:11:15;13.07;;;10.35;;
52730;SDS011;38624;53.242;6.974;2023-03-01T13:13:44;12.82;;;10.52;;
52730;SDS011;38624;53.242;6.974;2023-03-01T13:21:41;13.73;;;10.32;;
52730;SDS011;38624;53.242;6.974;2023-03-01T13:34:47;12.95;;;10.90;;
52730;SDS011;38624;53.242;6.974;2023-03-01T13:37:24;13.55;;;11.48;;
52730;SDS011;38624;53.242;6.974;2023-03-01T13:39:56;14.57;;;11.30;;
52730;SDS011;38624;53.242;6.974;2023-03-01T13:44:58;12.27;;;10.98;;
52730;SDS011;38624;53.242;6.974;2023-03-01T13:47:25;13.35;;;11.70;;
52730;SDS011;38624;53.242;6.974;2023-03-01T13:49:56;14.18;;;11.98;;
52730;SDS011;38624;53.242;6.974;2023-03-01T13:55:03;14.45;;;11.90;;
52730;SDS011;38624;53.242;6.974;2023-03-01T13:57:53;17.55;;;12.40;;
52730;SDS011;38624;53.242;6.974;2023-03-01T14:00:28;15.63;;;11.95;;
52730;SDS011;38624;53.242;6.974;2023-03-01T14:03:18;14.02;;;11.95;;
52730;SDS011;38624;53.242;6.974;2023-03-01T14:08:26;15.80;;;13.05;;
52730;SDS011;38624;53.242;6.974;2023-03-01T14:16:16;14.57;;;12.35;;
52730;SDS011;38624;53.242;6.974;2023-03-01T14:19:07;17.55;;;13.73;;
52730;SDS011;38624;53.242;6.974;2023-03-01T14:21:42;16.58;;;13.45;;
52730;SDS011;38624;53.242;6.974;2023-03-01T14:24:18;15.63;;;12.93;;
52730;SDS011;38624;53.242;6.974;2023-03-01T14:26:46;18.25;;;13.77;;
52730;SDS011;38624;53.242;6.974;2023-03-01T14:29:25;17.58;;;14.00;;
52730;SDS011;38624;53.242;6.974;2023-03-01T14:32:21;15.52;;;13.23;;
52730;SDS011;38624;53.242;6.974;2023-03-01T14:37:32;17.42;;;13.50;;
52730;SDS011;38624;53.242;6.974;2023-03-01T14:40:00;15.68;;;13.05;;
52730;SDS011;38624;53.242;6.974;2023-03-01T14:42:29;17.52;;;13.52;;
52730;SDS011;38624;53.242;6.974;2023-03-01T14:44:59;17.15;;;13.93;;
52730;SDS011;38624;53.242;6.974;2023-03-01T14:50:00;14.87;;;11.93;;
52730;SDS011;38624;53.242;6.974;2023-03-01T14:52:34;16.45;;;13.10;;
52730;SDS011;38624;53.242;6.974;2023-03-01T14:55:04;17.65;;;13.50;;
52730;SDS011;38624;53.242;6.974;2023-03-01T14:57:32;16.95;;;13.00;;
52730;SDS011;38624;53.242;6.974;2023-03-01T14:59:58;13.70;;;11.50;;
52730;SDS011;38624;53.242;6.974;2023-03-01T15:02:30;15.48;;;12.38;;
52730;SDS011;38624;53.242;6.974;2023-03-01T15:07:26;17.63;;;13.43;;
52730;SDS011;38624;53.242;6.974;2023-03-01T15:09:55;17.33;;;13.85;;
52730;SDS011;38624;53.242;6.974;2023-03-01T15:14:53;14.50;;;11.48;;
52730;SDS011;38624;53.242;6.974;2023-03-01T15:17:26;15.63;;;11.40;;
52730;SDS011;38624;53.242;6.974;2023-03-01T15:19:59;15.25;;;12.07;;
52730;SDS011;38624;53.242;6.974;2023-03-01T15:22:27;19.05;;;12.73;;
52730;SDS011;38624;53.242;6.974;2023-03-01T15:24:53;16.50;;;12.50;;
52730;SDS011;38624;53.242;6.974;2023-03-01T15:29:52;15.00;;;12.18;;
52730;SDS011;38624;53.242;6.974;2023-03-01T15:32:24;15.02;;;12.30;;
52730;SDS011;38624;53.242;6.974;2023-03-01T15:34:53;16.52;;;12.55;;
52730;SDS011;38624;53.242;6.974;2023-03-01T15:43:03;16.58;;;12.30;;
52730;SDS011;38624;53.242;6.974;2023-03-01T15:45:31;15.40;;;11.93;;
52730;SDS011;38624;53.242;6.974;2023-03-01T15:48:04;15.27;;;11.45;;
52730;SDS011;38624;53.242;6.974;2023-03-01T15:50:42;16.27;;;12.93;;
52730;SDS011;38624;53.242;6.974;2023-03-01T15:53:12;14.90;;;12.00;;
52730;SDS011;38624;53.242;6.974;2023-03-01T15:55:40;16.63;;;12.13;;
52730;SDS011;38624;53.242;6.974;2023-03-01T16:00:37;14.50;;;11.68;;
52730;SDS011;38624;53.242;6.974;2023-03-01T16:05:31;14.43;;;11.60;;
52730;SDS011;38624;53.242;6.974;2023-03-01T16:07:59;14.73;;;11.32;;
52730;SDS011;38624;53.242;6.974;2023-03-01T16:10:25;16.25;;;11.15;;
52730;SDS011;38624;53.242;6.974;2023-03-01T16:12:51;15.73;;;11.30;;
52730;SDS011;38624;53.242;6.974;2023-03-01T16:15:25;16.30;;;11.87;;
52730;SDS011;38624;53.242;6.974;2023-03-01T16:17:54;15.32;;;11.73;;
52730;SDS011;38624;53.242;6.974;2023-03-01T16:20:20;14.20;;;10.70;;
52730;SDS011;38624;53.242;6.974;2023-03-01T16:22:46;15.88;;;11.68;;
52730;SDS011;38624;53.242;6.974;2023-03-01T16:25:14;16.23;;;11.97;;
52730;SDS011;38624;53.242;6.974;2023-03-01T16:27:44;15.73;;;12.50;;
52730;SDS011;38624;53.242;6.974;2023-03-01T16:30:11;14.80;;;11.82;;
52730;SDS011;38624;53.242;6.974;2023-03-01T16:32:42;15.52;;;11.75;;
52730;SDS011;38624;53.242;6.974;2023-03-01T16:35:10;17.25;;;12.35;;
52730;SDS011;38624;53.242;6.974;2023-03-01T16:37:38;16.27;;;12.32;;
52730;SDS011;38624;53.242;6.974;2023-03-01T16:42:35;15.82;;;12.13;;
52730;SDS011;38624;53.242;6.974;2023-03-01T16:45:02;14.90;;;12.98;;
52730;SDS011;38624;53.242;6.974;2023-03-01T16:47:29;15.63;;;13.20;;
52730;SDS011;38624;53.242;6.974;2023-03-01T16:49:55;16.70;;;11.80;;
52730;SDS011;38624;53.242;6.974;2023-03-01T16:52:21;16.98;;;13.02;;
52730;SDS011;38624;53.242;6.974;2023-03-01T16:54:47;16.17;;;12.95;;
52730;SDS011;38624;53.242;6.974;2023-03-01T16:57:14;16.75;;;13.02;;
52730;SDS011;38624;53.242;6.974;2023-03-01T16:59:39;18.10;;;13.50;;
52730;SDS011;38624;53.242;6.974;2023-03-01T17:02:06;17.87;;;13.83;;
52730;SDS011;38624;53.242;6.974;2023-03-01T17:04:38;17.55;;;12.90;;